Time;durP1;ratioP1;P1;durP2;ratioP2;P2;SDS_P1;SDS_P2;PMS_P1;PMS_P2;Temp;Humidity;BMP_temperature;BMP_pressure;BME280_temperature;BME280_humidity;BME280_pressure;Samples;Min_cycle;Max_cycle;Signal;HPM_P1;HPM_P2
2023/01/12 15:28:00;;;;;;;6.75;1.70;;;18.50;99.90;;;;;;5087406;28;20020;-73
2023/01/12 15:30:26;;;;;;;9.95;2.05;;;18.50;99.90;;;;;;5080983;28;20123;-70
2023/01/12 15:32:53;;;;;;;6.85;1.50;;;18.50;99.90;;;;;;5073752;28;20115;-74
2023/01/12 15:35:25;;;;;;;8.13;1.65;;;18.50;99.90;;;;;;5080593;28;20082;-69
2023/01/12 18:14:29;;;;;;;6.82;1.90;;;18.30;99.90;;;;;;5079436;27;20441;-74
2023/01/12 18:16:56;;;;;;;8.20;1.98;;;18.30;99.90;;;;;;5069011;28;20033;-70
2023/01/12 18:19:22;;;;;;;7.72;1.85;;;18.30;99.90;;;;;;5069052;28;20043;-74
2023/01/12 18:21:49;;;;;;;8.18;2.15;;;18.30;99.90;;;;;;5069658;28;20103;-75
2023/01/12 18:24:14;;;;;;;8.38;2.10;;;18.40;99.90;;;;;;5070034;28;20530;-75
2023/01/12 18:26:40;;;;;;;10.93;2.10;;;18.40;99.90;;;;;;5068567;28;20107;-75
2023/01/12 18:29:06;;;;;;;10.18;2.60;;;18.40;99.90;;;;;;5072439;28;20328;-74
2023/01/12 18:31:37;;;;;;;11.88;2.42;;;18.40;99.90;;;;;;5071753;28;20115;-71
2023/01/12 18:34:04;;;;;;;7.60;2.25;;;18.40;99.90;;;;;;5067871;28;20032;-68
2023/01/12 18:36:35;;;;;;;11.77;2.67;;;18.50;99.90;;;;;;5071166;28;20057;-68
2023/01/12 18:39:02;;;;;;;10.27;2.17;;;18.50;99.90;;;;;;5068280;28;20109;-67
2023/01/12 18:44:13;;;;;;;13.07;2.45;;;18.60;99.90;;;;;;5069939;28;20162;-68
2023/01/12 18:49:30;;;;;;;10.95;2.10;;;18.60;99.90;;;;;;5077028;28;20032;-69
2023/01/12 18:54:46;;;;;;;9.43;2.10;;;18.70;99.90;;;;;;5073460;28;20082;-72
2023/01/12 18:57:16;;;;;;;8.57;2.20;;;18.70;99.90;;;;;;5073858;28;20025;-72
2023/01/12 18:59:43;;;;;;;5.60;1.70;;;18.70;99.90;;;;;;5068354;28;20428;-72
2023/01/12 19:02:11;;;;;;;7.00;1.70;;;18.70;99.90;;;;;;5078866;28;20029;-72
2023/01/12 19:05:22;;;;;;;8.45;2.45;;;18.70;99.90;;;;;;5089134;28;20029;-73
2023/01/12 19:07:42;;;;;;;6.47;2.17;;;18.70;99.90;;;;;;5053175;28;20056;-73
2023/01/12 19:10:09;;;;;;;6.68;1.95;;;18.70;99.90;;;;;;5064745;28;20083;-72
2023/01/12 19:12:35;;;;;;;10.27;2.20;;;18.70;99.90;;;;;;5048941;28;20044;-72
2023/01/12 19:17:50;;;;;;;7.45;2.05;;;18.70;99.90;;;;;;5061742;28;20037;-72
2023/01/12 19:20:16;;;;;;;6.95;1.98;;;18.70;99.90;;;;;;5087978;28;20382;-72
2023/01/12 19:28:34;;;;;;;8.35;1.98;;;18.80;99.90;;;;;;5050051;28;20060;-72
2023/01/12 19:31:05;;;;;;;6.75;2.00;;;18.80;99.90;;;;;;5075351;28;20024;-73
2023/01/12 19:33:32;;;;;;;7.97;1.88;;;18.80;99.90;;;;;;5056515;28;20040;-74
2023/01/12 19:35:58;;;;;;;6.82;2.03;;;18.80;99.90;;;;;;5056953;28;20025;-73
2023/01/12 19:38:24;;;;;;;6.97;1.95;;;18.80;99.90;;;;;;5057953;28;20403;-73
2023/01/12 19:40:53;;;;;;;5.88;1.80;;;18.80;99.90;;;;;;5055889;28;20028;-73
2023/01/12 19:43:25;;;;;;;7.15;2.10;;;18.80;99.90;;;;;;5055266;28;20055;-73
2023/01/12 19:45:55;;;;;;;5.47;1.85;;;18.80;99.90;;;;;;5054965;28;20152;-74
2023/01/12 19:48:24;;;;;;;7.00;2.15;;;18.80;99.90;;;;;;5054449;28;20033;-77
2023/01/12 19:50:51;;;;;;;5.95;1.80;;;18.80;99.90;;;;;;5054920;28;20067;-73
2023/01/12 19:53:20;;;;;;;7.63;2.00;;;18.90;99.90;;;;;;5063995;28;20032;-72
2023/01/12 19:55:48;;;;;;;7.65;1.90;;;18.90;99.90;;;;;;5055984;28;20025;-72
2023/01/12 19:58:15;;;;;;;6.07;1.90;;;18.90;99.90;;;;;;5059133;28;20039;-72
2023/01/12 20:00:46;;;;;;;6.00;2.17;;;18.90;99.90;;;;;;5058845;28;20032;-74
2023/01/12 20:03:18;;;;;;;6.70;2.50;;;18.90;99.90;;;;;;5063220;28;20040;-74
2023/01/12 20:05:49;;;;;;;6.88;2.15;;;18.90;99.90;;;;;;5077326;28;20028;-71
2023/01/12 20:08:17;;;;;;;11.77;3.83;;;18.90;99.90;;;;;;5077418;28;20033;-68
2023/01/12 20:10:44;;;;;;;9.82;3.45;;;18.90;99.90;;;;;;5060892;28;20025;-75
2023/01/12 20:13:11;;;;;;;8.70;2.70;;;19.00;99.90;;;;;;5056773;28;20063;-80
2023/01/12 20:15:39;;;;;;;8.20;2.30;;;19.00;99.90;;;;;;5056424;28;20416;-79
2023/01/12 20:18:05;;;;;;;12.18;2.55;;;19.10;99.90;;;;;;5055954;28;20379;-75
2023/01/12 20:20:32;;;;;;;9.65;2.58;;;19.10;99.90;;;;;;5056252;28;20044;-78
2023/01/12 20:22:58;;;;;;;9.73;2.50;;;19.10;99.90;;;;;;5056132;28;20158;-76
2023/01/12 20:25:25;;;;;;;8.50;2.42;;;19.10;99.90;;;;;;5058498;28;20430;-80
2023/01/12 20:27:52;;;;;;;7.88;2.17;;;19.10;99.90;;;;;;5047936;28;20112;-76
2023/01/12 20:30:19;;;;;;;8.68;2.70;;;19.10;99.90;;;;;;5042526;28;20444;-77
2023/01/12 20:32:45;;;;;;;8.38;2.47;;;19.10;99.90;;;;;;5041085;28;20427;-76
2023/01/12 20:35:14;;;;;;;7.68;2.58;;;19.10;99.90;;;;;;5064242;28;20025;-76
2023/01/12 20:37:41;;;;;;;8.07;2.45;;;19.20;99.90;;;;;;5054806;28;20044;-75
2023/01/12 20:40:09;;;;;;;11.00;2.53;;;19.20;99.90;;;;;;5055538;28;20424;-74
2023/01/12 20:42:35;;;;;;;9.23;2.47;;;19.10;99.90;;;;;;5053925;28;20029;-74
2023/01/12 20:45:02;;;;;;;10.65;2.47;;;19.20;99.90;;;;;;5054476;28;20037;-70
2023/01/12 20:47:30;;;;;;;8.10;2.78;;;19.20;99.90;;;;;;5054347;28;20025;-69
2023/01/12 20:49:56;;;;;;;12.15;2.97;;;19.20;99.90;;;;;;5050112;28;20035;-70
2023/01/12 20:52:23;;;;;;;13.80;2.50;;;19.20;99.90;;;;;;5048780;28;20420;-70
2023/01/12 20:54:49;;;;;;;12.25;2.15;;;19.30;99.90;;;;;;5054327;28;20028;-69
2023/01/12 20:57:16;;;;;;;12.07;2.88;;;19.30;99.90;;;;;;5046599;28;20043;-69
2023/01/12 20:59:43;;;;;;;9.77;2.55;;;19.20;99.90;;;;;;5048165;28;20025;-69
2023/01/12 21:02:17;;;;;;;8.50;2.60;;;19.30;99.90;;;;;;5051354;28;20025;-69
2023/01/12 21:04:43;;;;;;;7.05;2.30;;;19.30;99.90;;;;;;5045855;28;20037;-69
2023/01/12 21:07:09;;;;;;;9.63;2.30;;;19.30;99.90;;;;;;5045983;28;20421;-70
2023/01/12 21:09:35;;;;;;;7.82;2.35;;;19.30;99.90;;;;;;5073032;28;20052;-69
2023/01/12 21:12:01;;;;;;;8.65;2.33;;;19.20;99.90;;;;;;5046553;28;20065;-69
2023/01/12 21:14:27;;;;;;;8.20;2.22;;;19.30;99.90;;;;;;5045647;28;20060;-69
2023/01/12 21:16:53;;;;;;;7.28;2.00;;;19.20;99.90;;;;;;5054360;28;20025;-69
2023/01/12 21:19:19;;;;;;;9.25;1.98;;;19.20;99.90;;;;;;5055162;28;20124;-69
2023/01/12 21:21:45;;;;;;;6.97;2.00;;;19.20;99.90;;;;;;5055850;28;20029;-70
2023/01/12 21:24:11;;;;;;;7.22;2.03;;;19.30;99.90;;;;;;5055634;28;20037;-70
2023/01/12 21:26:37;;;;;;;9.13;2.50;;;19.20;99.90;;;;;;5050131;28;20425;-69
2023/01/12 21:29:03;;;;;;;8.73;2.65;;;19.20;99.90;;;;;;5043496;28;20071;-69
2023/01/12 21:31:29;;;;;;;6.70;2.20;;;19.20;99.90;;;;;;5054685;28;20393;-69
2023/01/12 21:33:55;;;;;;;6.90;2.20;;;19.20;99.90;;;;;;5053075;28;20029;-69
2023/01/12 21:36:22;;;;;;;11.65;2.58;;;19.20;99.90;;;;;;5044380;28;20539;-69
2023/01/12 21:38:52;;;;;;;9.30;2.60;;;19.20;99.90;;;;;;5035442;28;20021;-69
2023/01/12 21:41:20;;;;;;;11.95;2.75;;;19.20;99.90;;;;;;5035821;28;20044;-70
2023/01/12 21:43:51;;;;;;;8.40;2.10;;;19.20;99.90;;;;;;5035443;28;20025;-69
2023/01/12 21:46:17;;;;;;;9.30;2.10;;;19.10;99.90;;;;;;5039657;28;20044;-69
2023/01/12 21:48:44;;;;;;;8.10;2.63;;;19.10;99.90;;;;;;5050224;28;20072;-70
2023/01/12 21:51:12;;;;;;;13.90;2.28;;;19.20;99.90;;;;;;5053564;28;20037;-70
2023/01/12 21:53:40;;;;;;;8.95;2.22;;;19.10;99.90;;;;;;5053346;28;20408;-69
2023/01/12 21:56:09;;;;;;;6.78;2.38;;;19.10;99.90;;;;;;5054592;28;20028;-69
2023/01/12 21:58:36;;;;;;;7.90;2.72;;;19.10;99.90;;;;;;5052211;28;20021;-69
2023/01/12 22:01:10;;;;;;;7.93;2.30;;;19.10;99.90;;;;;;5052528;28;20025;-69
2023/01/12 22:03:36;;;;;;;9.32;2.30;;;19.10;99.90;;;;;;5054539;28;20025;-69
2023/01/12 22:06:06;;;;;;;8.98;2.33;;;19.10;99.90;;;;;;5048955;28;20022;-69
2023/01/12 22:08:33;;;;;;;8.88;2.35;;;19.10;99.90;;;;;;5067629;28;20033;-69
2023/01/12 22:11:07;;;;;;;11.00;2.17;;;19.10;99.90;;;;;;5035221;28;20102;-69
2023/01/12 22:13:34;;;;;;;8.52;2.28;;;19.10;99.90;;;;;;5034111;28;20080;-69
2023/01/12 22:16:08;;;;;;;8.40;2.22;;;19.00;99.90;;;;;;5037581;28;20033;-69
2023/01/12 22:18:35;;;;;;;7.13;2.03;;;19.10;99.90;;;;;;5054518;28;20048;-69
2023/01/12 22:21:02;;;;;;;7.10;2.40;;;19.00;99.90;;;;;;5053701;28;20341;-69
2023/01/12 22:23:28;;;;;;;7.72;2.53;;;19.00;99.90;;;;;;5055276;28;20033;-69
2023/01/12 22:25:58;;;;;;;7.55;1.90;;;19.00;99.90;;;;;;5063545;28;20036;-69
2023/01/12 22:28:24;;;;;;;7.68;2.17;;;19.00;99.90;;;;;;5034182;28;20088;-69
2023/01/12 22:30:51;;;;;;;7.15;2.10;;;18.90;99.90;;;;;;5034411;28;20065;-69
2023/01/12 22:33:17;;;;;;;8.90;2.00;;;18.90;99.90;;;;;;5033132;28;20089;-69
2023/01/12 22:35:43;;;;;;;7.57;2.40;;;19.00;99.90;;;;;;5036685;28;20089;-69
2023/01/12 22:38:09;;;;;;;8.40;2.28;;;18.90;99.90;;;;;;5034536;28;20045;-69
2023/01/12 22:40:35;;;;;;;8.70;2.30;;;18.90;99.90;;;;;;5034951;28;20049;-69
2023/01/12 22:45:49;;;;;;;7.40;1.88;;;18.90;99.90;;;;;;5035159;28;20038;-68
2023/01/12 22:48:15;;;;;;;8.23;2.42;;;18.90;99.90;;;;;;5034890;28;20162;-69
2023/01/12 22:50:41;;;;;;;9.30;2.10;;;18.90;99.90;;;;;;5035174;28;20041;-69
2023/01/12 22:53:07;;;;;;;6.50;2.10;;;18.90;99.90;;;;;;5034378;28;20040;-69
2023/01/12 22:55:33;;;;;;;7.25;1.98;;;18.90;99.90;;;;;;5040462;28;20037;-69
2023/01/12 22:57:59;;;;;;;5.70;1.77;;;18.90;99.90;;;;;;5041378;28;20022;-69
2023/01/12 23:00:25;;;;;;;8.90;2.00;;;18.90;99.90;;;;;;5037284;28;20036;-68
2023/01/12 23:03:00;;;;;;;9.07;2.30;;;18.90;99.90;;;;;;5037159;28;20033;-68
2023/01/12 23:05:44;;;;;;;6.20;1.65;;;18.80;99.90;;;;;;5038281;28;20041;-69
2023/01/12 23:08:11;;;;;;;7.63;2.05;;;18.80;99.90;;;;;;5038074;28;20033;-69
2023/01/12 23:10:37;;;;;;;9.18;2.35;;;18.80;99.90;;;;;;5038421;28;20103;-69
2023/01/12 23:13:19;;;;;;;6.63;1.85;;;18.80;99.90;;;;;;5071176;28;20465;-68
2023/01/12 23:15:46;;;;;;;6.80;2.20;;;18.80;99.90;;;;;;5050832;28;20052;-69
2023/01/12 23:18:22;;;;;;;7.38;2.17;;;18.80;99.90;;;;;;5056179;28;20031;-69
2023/01/12 23:20:48;;;;;;;7.45;2.20;;;18.80;99.90;;;;;;5057532;28;20020;-69
2023/01/12 23:23:16;;;;;;;7.20;1.80;;;18.70;99.90;;;;;;5057858;28;20029;-69
2023/01/12 23:25:44;;;;;;;7.50;2.20;;;18.70;99.90;;;;;;5056797;28;20021;-69
2023/01/12 23:28:12;;;;;;;9.90;1.98;;;18.70;99.90;;;;;;5057774;28;20117;-69
2023/01/12 23:30:38;;;;;;;6.88;1.90;;;18.80;99.90;;;;;;5058277;28;20102;-69
2023/01/12 23:33:04;;;;;;;8.20;1.95;;;18.70;99.90;;;;;;5057153;28;20365;-69
2023/01/12 23:35:37;;;;;;;7.22;2.10;;;18.70;99.90;;;;;;5050921;28;20029;-69
2023/01/12 23:38:05;;;;;;;6.03;1.98;;;18.70;99.90;;;;;;5037245;28;20029;-69
2023/01/12 23:40:31;;;;;;;6.32;1.95;;;18.70;99.90;;;;;;5038123;28;20428;-69
2023/01/12 23:42:58;;;;;;;9.50;2.38;;;18.70;99.90;;;;;;5037849;28;20448;-69
2023/01/12 23:45:24;;;;;;;6.20;1.88;;;18.70;99.90;;;;;;5040642;28;20025;-69
2023/01/12 23:47:50;;;;;;;7.97;2.25;;;18.70;99.90;;;;;;5057352;28;20060;-69
2023/01/12 23:50:16;;;;;;;6.65;2.10;;;18.70;99.90;;;;;;5057131;28;20132;-69
2023/01/12 23:52:42;;;;;;;8.73;2.10;;;18.60;99.90;;;;;;5056522;28;20306;-69
2023/01/12 23:55:08;;;;;;;7.85;2.13;;;18.60;99.90;;;;;;5051205;28;20128;-69
2023/01/12 23:57:34;;;;;;;7.55;2.25;;;18.60;99.90;;;;;;5037700;28;20034;-69
